Главная страница
METAR-TAF:

METAR-TAF

Аэропорты :

Норрчёпинг, Швеция

широта: 58-35N, долгота: 016-09E, высота над уровнем моря: 34 м

Текущие метеонаблюдения

Эта сводка был подготовлена 20 минут назад, в 13:50 UTC
Ветер 11 Узел от восточный
Температура 26°C
Влажность 58%
Давление 1020 hPa
Видимость 10 км и более

METAR: ESSP 091350Z AUTO 09011KT 9999 NCD 26/17 Q1020

Время: 16:10 (14:10 UTC)


TAF: отсутствует

Метеонаблюдения и прогнозы для более 4000 аэропортов (сводки METAR и TAF).

Имеющиеся станции представлены на карте желтыми и красными точками.

Чтобы увидеть название станции, наведите на нее мышь.

Затем щелкните, чтобы увидеть метеонаблюдения и метеопрогнозы.

Управление картой: чтобы увеличить масштаб, щелкните зеленые кнопки с черным крестиком; чтобы уменьшить масштаб, щелкните зеленую кнопку с тире; для просмотра соседних карт щелкайте зеленые стрелки.


METAR-TAF: